createdAt,value
2023-03-02T00:01:09.284Z,14.6
2023-03-02T00:04:09.431Z,14.3
2023-03-02T00:07:09.333Z,15.2
2023-03-02T00:10:09.322Z,14.3
2023-03-02T00:13:09.325Z,15.4
2023-03-02T00:16:09.415Z,15.4
2023-03-02T00:19:09.346Z,15.1
2023-03-02T00:22:10.800Z,16
2023-03-02T00:25:09.388Z,16
2023-03-02T00:28:09.373Z,16.2
2023-03-02T00:31:09.454Z,17.9
2023-03-02T00:34:09.391Z,16.4
2023-03-02T00:37:09.401Z,17.4
2023-03-02T00:40:09.408Z,17.7
2023-03-02T00:43:09.442Z,16.4
2023-03-02T00:46:09.450Z,16.8
2023-03-02T00:49:09.440Z,17
2023-03-02T00:52:09.456Z,17.4
2023-03-02T00:55:09.452Z,17.8
2023-03-02T00:58:09.469Z,18.7
2023-03-02T01:01:09.503Z,19.6
2023-03-02T01:04:09.486Z,19.5
2023-03-02T01:07:09.500Z,46.2
2023-03-02T01:10:09.514Z,99.3
2023-03-02T01:13:09.523Z,120.4
2023-03-02T01:16:09.635Z,162.3
2023-03-02T01:19:09.574Z,199.9
2023-03-02T01:22:09.576Z,157.4
2023-03-02T01:25:09.562Z,193.7
2023-03-02T01:28:09.565Z,197.1
2023-03-02T01:31:09.639Z,176.9
2023-03-02T01:34:09.586Z,256.2
2023-03-02T01:37:09.615Z,189.6
2023-03-02T01:40:09.603Z,232.1
2023-03-02T01:43:09.600Z,202
2023-03-02T01:46:09.677Z,244.3
2023-03-02T01:49:09.612Z,216
2023-03-02T01:52:09.610Z,183.5
2023-03-02T01:55:09.635Z,230
2023-03-02T01:58:09.636Z,245.7
2023-03-02T02:01:09.630Z,233.6
2023-03-02T02:04:09.707Z,256.4
2023-03-02T02:07:09.638Z,220.4
2023-03-02T02:10:09.632Z,296.9
2023-03-02T02:13:09.660Z,201.7
2023-03-02T02:16:09.685Z,219
2023-03-02T02:19:09.640Z,246.9
2023-03-02T02:22:09.651Z,322.4
2023-03-02T02:25:09.652Z,238.9
2023-03-02T02:28:09.660Z,175.9
2023-03-02T02:31:09.701Z,211.7
2023-03-02T02:34:09.667Z,184.7
2023-03-02T02:37:09.676Z,138.9
2023-03-02T02:40:09.675Z,164.7
2023-03-02T02:43:09.681Z,153.7
2023-03-02T02:46:09.737Z,170.5
2023-03-02T02:49:09.714Z,157.4
2023-03-02T02:52:09.689Z,148.5
2023-03-02T02:55:09.706Z,202.6
2023-03-02T02:58:09.698Z,201.8
2023-03-02T03:01:09.750Z,160.5
2023-03-02T03:04:09.732Z,180.6
2023-03-02T03:07:09.740Z,225.9
2023-03-02T03:10:09.712Z,162.7
2023-03-02T03:13:09.718Z,219.6
2023-03-02T03:16:09.716Z,153.2
2023-03-02T03:19:09.719Z,242.6
2023-03-02T03:22:09.726Z,231
2023-03-02T03:25:09.794Z,210
2023-03-02T03:28:09.728Z,194.8
2023-03-02T03:31:09.766Z,158.3
2023-03-02T03:34:09.737Z,157.7
2023-03-02T03:37:09.735Z,190.8
2023-03-02T03:40:09.784Z,203.5
2023-03-02T03:43:09.835Z,162.2
2023-03-02T03:46:09.783Z,175.9
2023-03-02T03:49:09.765Z,192
2023-03-02T03:52:09.765Z,166.5
2023-03-02T03:55:09.771Z,163
2023-03-02T03:58:09.787Z,176.7
2023-03-02T04:01:09.931Z,207.1
2023-03-02T04:04:09.774Z,159.4
2023-03-02T04:07:09.786Z,158.3
2023-03-02T04:10:09.782Z,187.3
2023-03-02T04:13:09.789Z,184
2023-03-02T04:16:09.827Z,188.8
2023-03-02T04:19:09.818Z,159.6
2023-03-02T04:22:09.800Z,163.1
2023-03-02T04:25:09.802Z,192.2
2023-03-02T04:28:09.809Z,164
2023-03-02T04:31:09.840Z,166.7
2023-03-02T04:34:09.828Z,197.3
2023-03-02T04:37:09.859Z,177.4
2023-03-02T04:40:09.843Z,162
2023-03-02T04:43:09.851Z,154.6
2023-03-02T04:46:09.885Z,155.3
2023-03-02T04:49:09.859Z,162.2
2023-03-02T04:52:09.859Z,161.6
2023-03-02T04:55:09.893Z,172
2023-03-02T04:58:09.872Z,172.3
2023-03-02T05:01:09.880Z,125
2023-03-02T05:04:09.905Z,130
2023-03-02T05:07:09.890Z,144
2023-03-02T05:10:09.884Z,191.6
2023-03-02T05:13:09.915Z,160.9
2023-03-02T05:16:09.919Z,184.9
2023-03-02T05:19:09.905Z,132.8
2023-03-02T05:22:09.907Z,174.1
2023-03-02T05:25:09.915Z,151.1
2023-03-02T05:28:09.915Z,183
2023-03-02T05:31:09.951Z,146.4
2023-03-02T05:34:09.955Z,136.6
2023-03-02T05:37:09.934Z,126.4
2023-03-02T05:40:09.939Z,167.8
2023-03-02T05:43:09.940Z,178.2
2023-03-02T05:46:09.948Z,184.6
2023-03-02T05:49:09.971Z,156.3
2023-03-02T05:52:09.951Z,150.3
2023-03-02T05:55:09.954Z,149.3
2023-03-02T05:58:09.959Z,132.3
2023-03-02T06:01:09.958Z,140
2023-03-02T06:04:09.953Z,179
2023-03-02T06:07:09.987Z,163.9
2023-03-02T06:10:09.965Z,131.3
2023-03-02T06:13:09.965Z,134.3
2023-03-02T06:16:10.049Z,116.6
2023-03-02T06:19:09.981Z,104.3
2023-03-02T06:22:09.984Z,130.9
2023-03-02T06:25:10.062Z,133
2023-03-02T06:28:09.998Z,111.6
2023-03-02T06:31:09.996Z,108.2
2023-03-02T06:34:10.000Z,131.6
2023-03-02T06:37:10.005Z,93.6
2023-03-02T06:40:10.194Z,100.2
2023-03-02T06:43:10.134Z,116
2023-03-02T06:46:10.088Z,123.9
2023-03-02T06:49:10.018Z,82.8
2023-03-02T06:52:10.026Z,104.1
2023-03-02T06:55:10.040Z,98.5
2023-03-02T06:58:10.030Z,90.2
2023-03-02T07:01:10.113Z,103.5
2023-03-02T07:04:10.036Z,96.6
2023-03-02T07:07:10.043Z,110
2023-03-02T07:10:10.043Z,97.5
2023-03-02T07:13:10.047Z,82.4
2023-03-02T07:16:10.057Z,95.6
2023-03-02T07:19:10.081Z,109.5
2023-03-02T07:22:10.058Z,96.6
2023-03-02T07:25:10.063Z,137.9
2023-03-02T07:28:10.071Z,112.1
2023-03-02T07:31:10.134Z,95.8
2023-03-02T07:34:10.077Z,88.4
2023-03-02T07:37:10.099Z,97.6
2023-03-02T07:40:10.084Z,103.1
2023-03-02T07:43:10.092Z,76.4
2023-03-02T07:46:10.109Z,87.2
2023-03-02T07:49:10.096Z,104.8
2023-03-02T07:52:10.106Z,68.4
2023-03-02T07:55:10.126Z,74.1
2023-03-02T07:58:10.114Z,82.1
2023-03-02T08:01:10.129Z,67.8
2023-03-02T08:04:10.126Z,86.2
2023-03-02T08:07:10.123Z,102.8
2023-03-02T08:10:10.132Z,102.2
2023-03-02T08:13:10.484Z,122
2023-03-02T08:16:10.213Z,91
2023-03-02T08:19:10.156Z,52.4
2023-03-02T08:22:10.157Z,67.6
2023-03-02T08:25:10.164Z,58.3
2023-03-02T08:28:10.163Z,47
2023-03-02T08:31:10.245Z,63.5
2023-03-02T08:34:10.176Z,48.7
2023-03-02T08:37:10.173Z,46.7
2023-03-02T08:40:10.187Z,60.3
2023-03-02T08:43:10.191Z,37.8
2023-03-02T08:46:10.285Z,44
2023-03-02T08:49:10.224Z,50.8
2023-03-02T08:52:10.192Z,42.2
2023-03-02T08:55:10.220Z,36
2023-03-02T08:58:10.202Z,37.5
2023-03-02T09:01:10.237Z,34.7
2023-03-02T09:04:10.289Z,26.8
2023-03-02T09:07:10.339Z,28.3
2023-03-02T09:10:10.221Z,35.7
2023-03-02T09:13:10.236Z,27.8
2023-03-02T09:16:10.291Z,28.3
2023-03-02T09:19:10.242Z,30.8
2023-03-02T09:22:10.242Z,24.8
2023-03-02T09:25:10.274Z,31.2
2023-03-02T09:28:10.258Z,23.8
2023-03-02T09:31:10.255Z,18.5
2023-03-02T09:34:10.261Z,24.1
2023-03-02T09:37:10.271Z,29.9
2023-03-02T09:40:10.271Z,19.7
2023-03-02T09:43:10.328Z,18.8
2023-03-02T09:46:10.361Z,21.6
2023-03-02T09:49:10.284Z,24.6
2023-03-02T09:52:10.288Z,20
2023-03-02T09:55:10.290Z,18.6
2023-03-02T09:58:10.294Z,18.3
2023-03-02T10:01:10.319Z,26.6
2023-03-02T10:04:10.403Z,126.3
2023-03-02T10:07:10.310Z,55.7
2023-03-02T10:10:10.306Z,43.5
2023-03-02T10:13:10.323Z,36.7
2023-03-02T10:16:10.350Z,18.7
2023-03-02T10:19:10.357Z,18.9
2023-03-02T10:22:10.326Z,37.1
2023-03-02T10:25:10.328Z,17.2
2023-03-02T10:28:10.329Z,17.3
2023-03-02T10:31:10.400Z,18.1
2023-03-02T10:34:10.331Z,17.3
2023-03-02T10:37:10.371Z,18.4
2023-03-02T10:40:10.346Z,18.7
2023-03-02T10:43:10.351Z,19.3
2023-03-02T10:46:10.429Z,21.5
2023-03-02T10:49:10.350Z,18.4
2023-03-02T10:52:10.358Z,19.8
2023-03-02T10:55:10.388Z,17.1
2023-03-02T10:58:10.371Z,20.3
2023-03-02T11:01:10.392Z,19.5
2023-03-02T11:04:10.436Z,19.4
2023-03-02T11:07:10.370Z,18.2
2023-03-02T11:10:10.381Z,17.3
2023-03-02T11:13:10.402Z,17
2023-03-02T11:16:10.432Z,17.2
2023-03-02T11:19:10.375Z,16.1
2023-03-02T11:22:10.390Z,17.7
2023-03-02T11:25:10.387Z,16.9
2023-03-02T11:28:10.463Z,16.6
2023-03-02T11:31:10.466Z,17.4
2023-03-02T11:34:17.131Z,15.6
2023-03-02T11:37:10.392Z,21.6
2023-03-02T11:40:10.391Z,15.3
2023-03-02T11:43:10.398Z,16.5
2023-03-02T11:46:20.266Z,17.3
2023-03-02T11:49:10.442Z,19.6
2023-03-02T11:52:10.422Z,17
2023-03-02T11:55:10.427Z,16.7
2023-03-02T11:58:10.440Z,16.9
2023-03-02T12:01:10.450Z,18
2023-03-02T12:04:10.480Z,17.4
2023-03-02T12:07:10.509Z,17.6
2023-03-02T12:10:10.476Z,20.3
2023-03-02T12:13:10.478Z,17.2
2023-03-02T12:16:10.495Z,18.4
2023-03-02T12:19:10.496Z,17.6
2023-03-02T12:22:10.524Z,17.7
2023-03-02T12:25:10.548Z,18.6
2023-03-02T12:28:10.525Z,22
2023-03-02T12:31:10.557Z,18.8
2023-03-02T12:34:10.558Z,17.9
2023-03-02T12:37:10.578Z,18.5
2023-03-02T12:40:10.538Z,18.9
2023-03-02T12:43:10.608Z,18.8
2023-03-02T12:46:10.556Z,19.7
2023-03-02T12:49:11.177Z,19.7
2023-03-02T12:52:10.622Z,19.3
2023-03-02T12:55:10.570Z,21.2
2023-03-02T12:58:10.570Z,20
2023-03-02T13:01:10.651Z,21.4
2023-03-02T13:04:10.619Z,22.4
2023-03-02T13:07:10.587Z,21.6
2023-03-02T13:10:10.622Z,21.9
2023-03-02T13:13:10.615Z,20.2
2023-03-02T13:16:10.593Z,19.8
2023-03-02T13:19:10.632Z,21.2
2023-03-02T13:22:10.639Z,21.4
2023-03-02T13:25:10.603Z,21.4
2023-03-02T13:28:10.610Z,21.8
2023-03-02T13:31:10.674Z,21.1
2023-03-02T13:34:10.613Z,20.8
2023-03-02T13:37:10.669Z,20.9
2023-03-02T13:40:10.648Z,21.9
2023-03-02T13:43:10.630Z,22.6
2023-03-02T13:46:10.711Z,22.3
2023-03-02T13:49:11.748Z,22.1
2023-03-02T13:52:10.643Z,21.6
2023-03-02T13:55:10.722Z,21.9
2023-03-02T13:58:10.652Z,23.4
2023-03-02T14:01:10.701Z,23
2023-03-02T14:04:10.727Z,23.4
2023-03-02T14:07:10.663Z,23.7
2023-03-02T14:10:10.668Z,24.2
2023-03-02T14:13:10.763Z,24.8
2023-03-02T14:16:10.710Z,24.7
2023-03-02T14:19:10.681Z,23.7
2023-03-02T14:22:10.700Z,21.9
2023-03-02T14:25:10.702Z,22.8
2023-03-02T14:28:10.699Z,23.4
2023-03-02T14:31:10.790Z,25.6
2023-03-02T14:34:10.712Z,25.3
2023-03-02T14:37:10.728Z,26
2023-03-02T14:40:10.727Z,27.6
2023-03-02T14:43:10.722Z,26.6
2023-03-02T14:46:10.776Z,27.4
2023-03-02T14:49:10.771Z,27.5
2023-03-02T14:52:10.747Z,28.4
2023-03-02T14:55:10.748Z,29.2
2023-03-02T14:58:10.765Z,28.4
2023-03-02T15:01:10.757Z,28.5
2023-03-02T15:04:10.757Z,28.6
2023-03-02T15:07:10.791Z,33.1
2023-03-02T15:10:10.791Z,30.6
2023-03-02T15:13:10.772Z,32.1
2023-03-02T15:16:10.891Z,35.9
2023-03-02T15:19:10.780Z,35.3
2023-03-02T15:22:10.788Z,37.5
2023-03-02T15:25:10.835Z,35.6
2023-03-02T15:28:10.791Z,36.2
2023-03-02T15:31:10.841Z,38.6
2023-03-02T15:34:10.794Z,40.9
2023-03-02T15:37:10.798Z,39
2023-03-02T15:40:10.801Z,38.8
2023-03-02T15:43:10.831Z,39.1
2023-03-02T15:46:10.812Z,40.5
2023-03-02T15:49:10.817Z,38.2
2023-03-02T15:52:10.825Z,39.7
2023-03-02T15:55:10.826Z,45.4
2023-03-02T15:58:10.828Z,46.3
2023-03-02T16:01:11.034Z,47.9
2023-03-02T16:04:10.863Z,46.3
2023-03-02T16:07:10.927Z,46.2
2023-03-02T16:10:10.842Z,44.7
2023-03-02T16:13:10.849Z,55.7
2023-03-02T16:16:10.919Z,50.4
2023-03-02T16:19:10.879Z,48.1
2023-03-02T16:22:10.864Z,57.4
2023-03-02T16:25:10.874Z,47.9
2023-03-02T16:28:10.878Z,57
2023-03-02T16:31:10.877Z,59
2023-03-02T16:34:10.899Z,54.8
2023-03-02T16:37:10.998Z,50.1
2023-03-02T16:40:10.904Z,51.8
2023-03-02T16:43:10.944Z,64.9
2023-03-02T16:46:10.950Z,64.7
2023-03-02T16:49:10.914Z,62.6
2023-03-02T16:52:10.918Z,65.2
2023-03-02T16:55:10.952Z,83.2
2023-03-02T16:58:10.932Z,72.3
2023-03-02T17:01:10.967Z,68.2
2023-03-02T17:04:11.007Z,76.7
2023-03-02T17:07:10.942Z,67.9
2023-03-02T17:10:10.945Z,68.9
2023-03-02T17:13:10.970Z,70
2023-03-02T17:16:11.045Z,66.8
2023-03-02T17:19:10.949Z,68
2023-03-02T17:22:10.961Z,63.1
2023-03-02T17:25:10.958Z,64.4
2023-03-02T17:28:10.969Z,57.7
2023-03-02T17:31:11.050Z,55.9
2023-03-02T17:34:10.980Z,54.3
2023-03-02T17:37:10.979Z,52.5
2023-03-02T17:40:10.991Z,51.4
2023-03-02T17:43:10.988Z,56.1
2023-03-02T17:46:11.022Z,50.1
2023-03-02T17:49:11.028Z,55.4
2023-03-02T17:52:11.016Z,49.9
2023-03-02T17:55:11.009Z,48.2
2023-03-02T17:58:11.027Z,54.7
2023-03-02T18:01:11.022Z,50.7
2023-03-02T18:04:11.077Z,44.5
2023-03-02T18:07:11.049Z,48.2
2023-03-02T18:10:11.034Z,61.9
2023-03-02T18:13:11.041Z,56.6
2023-03-02T18:16:11.090Z,71.9
2023-03-02T18:19:11.047Z,73.5
2023-03-02T18:22:11.054Z,74.9
2023-03-02T18:25:11.080Z,62.8
2023-03-02T18:28:11.054Z,62.9
2023-03-02T18:31:11.103Z,68.4
2023-03-02T18:34:11.062Z,81.6
2023-03-02T18:37:11.081Z,100.3
2023-03-02T18:40:11.073Z,88.7
2023-03-02T18:43:11.100Z,80
2023-03-02T18:46:11.120Z,88
2023-03-02T18:49:11.091Z,96.3
2023-03-02T18:52:11.084Z,101.5
2023-03-02T18:55:11.101Z,95.8
2023-03-02T18:58:11.100Z,72.8
2023-03-02T19:01:11.151Z,93.8
2023-03-02T19:04:11.104Z,74.4
2023-03-02T19:07:11.117Z,57.8
2023-03-02T19:10:11.118Z,76.1
2023-03-02T19:13:11.140Z,76
2023-03-02T19:16:11.176Z,62.4
2023-03-02T19:19:11.167Z,49.3
2023-03-02T19:22:11.156Z,57.5
2023-03-02T19:25:11.145Z,61.1
2023-03-02T19:28:11.151Z,57.2
2023-03-02T19:31:11.344Z,61.4
2023-03-02T19:34:11.161Z,66
2023-03-02T19:37:11.186Z,66.6
2023-03-02T19:40:11.161Z,67
2023-03-02T19:43:11.156Z,59.6
2023-03-02T19:46:11.245Z,66.8
2023-03-02T19:49:11.158Z,64
2023-03-02T19:52:11.168Z,65.4
2023-03-02T19:55:11.192Z,81.6
2023-03-02T19:58:11.236Z,82.9
2023-03-02T20:01:11.294Z,79.7
2023-03-02T20:04:11.189Z,72.3
2023-03-02T20:07:11.182Z,70
2023-03-02T20:10:11.194Z,79.9
2023-03-02T20:13:11.225Z,91.7
2023-03-02T20:16:11.213Z,71.2
2023-03-02T20:19:13.262Z,81.3
2023-03-02T20:22:11.209Z,78.1
2023-03-02T20:25:11.212Z,86.7
2023-03-02T20:28:11.218Z,82.6
2023-03-02T20:31:11.265Z,82.1
2023-03-02T20:34:11.235Z,76.3
2023-03-02T20:37:11.235Z,82.5
2023-03-02T20:40:11.244Z,89.3
2023-03-02T20:43:11.241Z,138
2023-03-02T20:46:11.273Z,114.8
2023-03-02T20:49:12.443Z,109
2023-03-02T20:52:11.272Z,109.2
2023-03-02T20:55:11.258Z,104
2023-03-02T20:58:11.266Z,79.8
2023-03-02T21:01:11.325Z,120.3
2023-03-02T21:04:11.277Z,114.4
2023-03-02T21:07:11.309Z,100.6
2023-03-02T21:10:11.282Z,115.1
2023-03-02T21:13:11.283Z,106.3
2023-03-02T21:16:11.302Z,91.9
2023-03-02T21:19:11.301Z,105.8
2023-03-02T21:22:11.297Z,98.8
2023-03-02T21:25:11.342Z,114.6
2023-03-02T21:28:11.308Z,117.8
2023-03-02T21:31:11.348Z,126
2023-03-02T21:34:11.315Z,125.7
2023-03-02T21:37:11.318Z,118.5
2023-03-02T21:40:11.322Z,139.2
2023-03-02T21:43:11.343Z,130.1
2023-03-02T21:46:11.330Z,148.7
2023-03-02T21:49:11.322Z,127.2
2023-03-02T21:52:11.327Z,125.3
2023-03-02T21:55:11.343Z,144.6
2023-03-02T21:58:11.333Z,154.8
2023-03-02T22:01:12.158Z,148.4
2023-03-02T22:04:11.364Z,129.8
2023-03-02T22:07:11.346Z,128.3
2023-03-02T22:10:11.375Z,127.9
2023-03-02T22:13:11.351Z,121.2
2023-03-02T22:16:11.402Z,138.7
2023-03-02T22:19:11.393Z,145.4
2023-03-02T22:22:11.375Z,144.8
2023-03-02T22:25:11.383Z,99.5
2023-03-02T22:28:11.381Z,92.3
2023-03-02T22:31:11.433Z,94.4
2023-03-02T22:34:11.398Z,94.2
2023-03-02T22:37:11.427Z,88.4
2023-03-02T22:40:11.403Z,101.2
2023-03-02T22:43:11.433Z,104.8
2023-03-02T22:46:11.414Z,122.2
2023-03-02T22:49:11.418Z,127.8
2023-03-02T22:52:11.422Z,109.3
2023-03-02T22:55:11.449Z,105.5
2023-03-02T22:58:11.426Z,128.7
2023-03-02T23:01:11.459Z,111.3
2023-03-02T23:04:11.441Z,104.5
2023-03-02T23:07:11.442Z,101.1
2023-03-02T23:10:11.451Z,89.3
2023-03-02T23:13:11.488Z,77.4
2023-03-02T23:16:11.471Z,83.1
2023-03-02T23:19:11.460Z,89.6
2023-03-02T23:22:11.462Z,88.9
2023-03-02T23:25:11.468Z,79
2023-03-02T23:28:11.472Z,83.7
2023-03-02T23:31:11.498Z,86.4
2023-03-02T23:34:11.482Z,74.2
2023-03-02T23:37:11.478Z,74.4
2023-03-02T23:40:11.489Z,77.1
2023-03-02T23:43:11.482Z,69.3
2023-03-02T23:46:11.541Z,75.4
2023-03-02T23:49:11.512Z,89.8
2023-03-02T23:52:11.494Z,96.5
2023-03-02T23:55:11.496Z,94.7
2023-03-02T23:58:11.499Z,103.2
